createdAt,value
2022-08-03T00:01:37.243Z,23.02
2022-08-03T00:04:40.099Z,22.88
2022-08-03T00:07:42.700Z,22.81
2022-08-03T00:10:45.879Z,22.74
2022-08-03T00:13:48.831Z,22.67
2022-08-03T00:16:51.708Z,22.59
2022-08-03T00:19:54.378Z,22.38
2022-08-03T00:22:57.251Z,22.35
2022-08-03T00:25:59.934Z,22.27
2022-08-03T00:29:02.763Z,22.19
2022-08-03T00:32:05.622Z,22.12
2022-08-03T00:35:11.339Z,22.06
2022-08-03T00:38:20.965Z,21.92
2022-08-03T00:41:23.875Z,21.89
2022-08-03T00:44:26.435Z,21.84
2022-08-03T00:47:29.407Z,21.70
2022-08-03T00:50:37.392Z,21.64
2022-08-03T00:53:40.306Z,21.57
2022-08-03T00:56:59.249Z,21.44
2022-08-03T01:00:03.604Z,21.33
2022-08-03T01:03:07.969Z,21.29
2022-08-03T01:06:18.139Z,21.21
2022-08-03T01:09:32.657Z,21.17
2022-08-03T01:12:39.315Z,21.18
2022-08-03T01:15:54.940Z,21.16
2022-08-03T01:19:03.643Z,21.12
2022-08-03T01:22:43.938Z,21.14
2022-08-03T01:26:00.333Z,21.06
2022-08-03T01:29:41.496Z,20.96
2022-08-03T01:33:00.705Z,20.83
2022-08-03T01:36:05.954Z,20.78
2022-08-03T01:39:09.592Z,20.81
2022-08-03T01:42:14.383Z,20.69
2022-08-03T01:45:18.865Z,20.62
2022-08-03T01:48:22.113Z,20.55
2022-08-03T01:51:56.036Z,20.54
2022-08-03T01:54:51.586Z,20.48
2022-08-03T01:58:05.518Z,20.45
2022-08-03T02:01:10.486Z,20.37
2022-08-03T02:04:15.536Z,20.25
2022-08-03T02:07:19.276Z,20.30
2022-08-03T02:10:35.252Z,20.18
2022-08-03T02:13:39.499Z,20.21
2022-08-03T02:16:43.924Z,20.11
2022-08-03T02:19:47.574Z,20.09
2022-08-03T02:22:50.830Z,20.06
2022-08-03T02:26:01.874Z,20.00
2022-08-03T02:29:15.547Z,19.97
2022-08-03T02:32:21.960Z,19.79
2022-08-03T02:35:27.398Z,19.84
2022-08-03T02:38:36.565Z,19.81
2022-08-03T02:41:50.986Z,19.84
2022-08-03T02:44:55.924Z,19.74
2022-08-03T02:48:01.363Z,19.66
2022-08-03T02:51:04.932Z,19.71
2022-08-03T02:54:09.491Z,19.67
2022-08-03T02:57:12.800Z,19.68
2022-08-03T03:00:27.227Z,19.70
2022-08-03T03:03:33.868Z,19.65
2022-08-03T03:06:45.196Z,19.52
2022-08-03T03:09:51.524Z,19.43
2022-08-03T03:12:57.112Z,19.46
2022-08-03T03:16:04.923Z,19.48
2022-08-03T03:19:09.481Z,19.47
2022-08-03T03:22:13.364Z,19.47
2022-08-03T03:25:16.869Z,19.42
2022-08-03T03:28:19.659Z,19.44
2022-08-03T03:31:22.716Z,19.38
2022-08-03T03:34:25.407Z,19.42
2022-08-03T03:37:28.427Z,19.38
2022-08-03T03:40:31.829Z,19.38
2022-08-03T03:43:34.926Z,19.35
2022-08-03T03:46:39.168Z,19.32
2022-08-03T03:49:42.936Z,19.33
2022-08-03T03:52:45.455Z,19.30
2022-08-03T03:55:59.576Z,19.31
2022-08-03T03:59:04.908Z,19.33
2022-08-03T04:02:08.936Z,19.28
2022-08-03T04:05:30.929Z,19.24
2022-08-03T04:08:52.115Z,19.28
2022-08-03T04:11:59.070Z,19.26
2022-08-03T04:15:02.861Z,19.30
2022-08-03T04:18:08.127Z,19.25
2022-08-03T04:21:13.248Z,19.32
2022-08-03T04:24:16.396Z,19.28
2022-08-03T04:27:22.992Z,19.33
2022-08-03T04:30:28.111Z,19.37
2022-08-03T04:33:32.973Z,19.40
2022-08-03T04:36:43.719Z,19.44
2022-08-03T04:39:48.785Z,19.48
2022-08-03T04:42:54.053Z,19.59
2022-08-03T04:45:57.094Z,19.68
2022-08-03T04:49:00.182Z,19.76
2022-08-03T04:52:03.124Z,19.86
2022-08-03T04:55:06.582Z,19.96
2022-08-03T04:58:09.855Z,20.08
2022-08-03T05:01:12.790Z,20.15
2022-08-03T05:04:15.483Z,20.27
2022-08-03T05:07:24.109Z,20.40
2022-08-03T05:10:28.002Z,20.47
2022-08-03T05:13:31.000Z,20.59
2022-08-03T05:16:33.561Z,20.82
2022-08-03T05:19:36.445Z,21.04
2022-08-03T05:22:39.032Z,21.36
2022-08-03T05:25:49.575Z,21.42
2022-08-03T05:28:53.526Z,21.44
2022-08-03T05:31:56.499Z,21.62
2022-08-03T05:34:59.648Z,21.63
2022-08-03T05:38:24.049Z,21.79
2022-08-03T05:41:36.929Z,22.04
2022-08-03T05:44:40.384Z,22.16
2022-08-03T05:47:44.343Z,22.30
2022-08-03T05:50:47.334Z,22.44
2022-08-03T05:53:50.064Z,22.64
2022-08-03T05:56:52.875Z,22.58
2022-08-03T05:59:58.550Z,22.83
2022-08-03T06:03:02.442Z,22.97
2022-08-03T06:06:05.373Z,23.14
2022-08-03T06:09:08.033Z,23.14
2022-08-03T06:12:14.097Z,23.19
2022-08-03T06:15:17.260Z,23.27
2022-08-03T06:18:20.303Z,23.40
2022-08-03T06:21:22.866Z,23.49
2022-08-03T06:24:25.842Z,23.63
2022-08-03T06:27:36.625Z,23.63
2022-08-03T06:30:41.715Z,23.91
2022-08-03T06:34:30.781Z,24.09
2022-08-03T06:37:07.106Z,24.24
2022-08-03T06:40:11.431Z,24.35
2022-08-03T06:43:16.939Z,24.49
2022-08-03T06:46:19.869Z,24.57
2022-08-03T06:49:22.860Z,24.82
2022-08-03T06:52:37.693Z,25.00
2022-08-03T06:55:42.481Z,25.30
2022-08-03T06:58:47.015Z,25.42
2022-08-03T07:01:50.137Z,25.41
2022-08-03T07:04:52.670Z,25.60
2022-08-03T07:07:57.312Z,25.78
2022-08-03T07:10:59.931Z,25.86
2022-08-03T07:14:02.799Z,26.02
2022-08-03T07:17:12.023Z,26.00
2022-08-03T07:20:17.437Z,26.13
2022-08-03T07:23:19.980Z,26.45
2022-08-03T07:26:22.824Z,26.40
2022-08-03T07:29:25.359Z,26.62
2022-08-03T07:32:31.116Z,26.64
2022-08-03T07:35:33.721Z,26.97
2022-08-03T07:38:39.392Z,27.06
2022-08-03T07:41:41.965Z,27.14
2022-08-03T07:44:45.518Z,27.13
2022-08-03T07:47:53.494Z,27.38
2022-08-03T07:50:57.002Z,27.48
2022-08-03T07:54:00.923Z,27.46
2022-08-03T07:57:04.162Z,27.60
2022-08-03T08:00:13.826Z,27.79
2022-08-03T08:03:17.585Z,27.87
2022-08-03T08:06:20.295Z,28.17
2022-08-03T08:09:23.556Z,28.44
2022-08-03T08:12:26.074Z,28.36
2022-08-03T08:15:29.332Z,28.66
2022-08-03T08:18:32.124Z,28.68
2022-08-03T08:21:54.062Z,28.75
2022-08-03T08:25:04.482Z,28.88
2022-08-03T08:28:22.252Z,29.19
2022-08-03T08:31:30.091Z,29.30
2022-08-03T08:34:32.927Z,29.27
2022-08-03T08:37:35.920Z,29.24
2022-08-03T08:40:40.499Z,29.48
2022-08-03T08:43:43.490Z,29.57
2022-08-03T08:46:47.164Z,29.79
2022-08-03T08:50:08.842Z,29.82
2022-08-03T08:53:17.666Z,30.01
2022-08-03T08:56:25.563Z,30.18
2022-08-03T08:59:47.922Z,30.25
2022-08-03T09:02:51.271Z,30.41
2022-08-03T09:05:56.173Z,30.49
2022-08-03T09:08:59.150Z,30.67
2022-08-03T09:12:27.201Z,30.89
2022-08-03T09:15:33.353Z,30.92
2022-08-03T09:18:36.312Z,31.14
2022-08-03T09:21:38.873Z,31.06
2022-08-03T09:25:21.555Z,30.80
2022-08-03T09:28:58.848Z,31.03
2022-08-03T09:31:46.313Z,30.99
2022-08-03T09:34:50.273Z,31.04
2022-08-03T09:38:14.023Z,31.12
2022-08-03T09:41:20.019Z,30.93
2022-08-03T09:44:37.349Z,31.13
2022-08-03T09:47:44.949Z,31.33
2022-08-03T09:51:13.180Z,31.55
2022-08-03T09:54:30.419Z,31.61
2022-08-03T09:57:33.318Z,31.43
2022-08-03T10:00:52.696Z,31.39
2022-08-03T10:04:02.984Z,31.58
2022-08-03T10:07:11.453Z,31.63
2022-08-03T10:10:29.013Z,31.96
2022-08-03T10:13:34.281Z,31.88
2022-08-03T10:16:40.457Z,31.74
2022-08-03T10:19:43.095Z,32.20
2022-08-03T10:22:47.268Z,31.93
2022-08-03T10:25:55.052Z,32.08
2022-08-03T10:29:00.076Z,32.04
2022-08-03T10:32:05.634Z,32.44
2022-08-03T10:35:19.012Z,32.04
2022-08-03T10:38:30.628Z,32.12
2022-08-03T10:41:38.406Z,31.55
2022-08-03T10:44:41.390Z,31.44
2022-08-03T10:47:44.465Z,31.15
2022-08-03T10:50:49.295Z,30.80
2022-08-03T10:53:55.304Z,30.89
2022-08-03T10:57:17.032Z,30.78
2022-08-03T11:00:25.937Z,30.73
2022-08-03T11:03:32.973Z,30.45
2022-08-03T11:06:37.632Z,30.50
2022-08-03T11:09:47.621Z,30.59
2022-08-03T11:12:50.679Z,30.80
2022-08-03T11:16:01.593Z,30.87
2022-08-03T11:19:10.599Z,30.97
2022-08-03T11:22:13.970Z,31.22
2022-08-03T11:25:53.630Z,31.01
2022-08-03T11:28:40.446Z,30.82
2022-08-03T11:31:51.701Z,30.69
2022-08-03T11:35:08.583Z,30.77
2022-08-03T11:38:12.391Z,31.13
2022-08-03T11:41:33.089Z,31.10
2022-08-03T11:44:47.626Z,31.54
2022-08-03T11:47:54.527Z,31.73
2022-08-03T11:50:57.368Z,31.94
2022-08-03T11:54:01.808Z,32.17
2022-08-03T11:57:04.779Z,32.35
2022-08-03T12:00:35.566Z,32.24
2022-08-03T12:03:38.492Z,32.57
2022-08-03T12:06:56.369Z,32.42
2022-08-03T12:10:26.264Z,32.68
2022-08-03T12:14:33.127Z,33.03
2022-08-03T12:17:00.514Z,33.36
2022-08-03T12:20:04.922Z,33.47
2022-08-03T12:23:09.660Z,33.63
2022-08-03T12:26:12.261Z,33.87
2022-08-03T12:29:19.133Z,34.00
2022-08-03T12:32:21.822Z,33.99
2022-08-03T12:35:25.988Z,34.20
2022-08-03T12:38:30.179Z,34.40
2022-08-03T12:41:37.650Z,34.45
2022-08-03T12:44:41.343Z,34.63
2022-08-03T12:48:01.164Z,34.06
2022-08-03T12:51:10.941Z,34.04
2022-08-03T12:54:24.543Z,34.17
2022-08-03T12:57:41.283Z,34.06
2022-08-03T13:00:55.628Z,33.82
2022-08-03T13:03:58.187Z,33.64
2022-08-03T13:07:05.245Z,33.66
2022-08-03T13:10:10.233Z,33.46
2022-08-03T13:13:13.375Z,33.18
2022-08-03T13:16:19.374Z,33.46
2022-08-03T13:19:22.481Z,33.31
2022-08-03T13:22:30.228Z,33.45
2022-08-03T13:25:33.061Z,33.33
2022-08-03T13:28:35.998Z,33.19
2022-08-03T13:31:38.971Z,33.03
2022-08-03T13:34:53.612Z,33.20
2022-08-03T13:37:56.611Z,33.33
2022-08-03T13:41:00.411Z,33.19
2022-08-03T13:44:28.854Z,33.52
2022-08-03T13:47:30.659Z,33.47
2022-08-03T13:50:33.920Z,33.63
2022-08-03T13:53:36.435Z,33.85
2022-08-03T13:56:39.433Z,34.14
2022-08-03T13:59:42.054Z,34.30
2022-08-03T14:02:44.994Z,34.30
2022-08-03T14:05:48.265Z,34.36
2022-08-03T14:08:51.555Z,34.25
2022-08-03T14:12:07.802Z,34.37
2022-08-03T14:15:13.069Z,34.19
2022-08-03T14:18:29.048Z,34.21
2022-08-03T14:21:36.245Z,34.31
2022-08-03T14:24:39.075Z,34.28
2022-08-03T14:27:41.703Z,34.33
2022-08-03T14:30:45.366Z,34.47
2022-08-03T14:33:47.905Z,34.62
2022-08-03T14:36:50.697Z,34.67
2022-08-03T14:40:01.137Z,34.85
2022-08-03T14:43:04.692Z,34.93
2022-08-03T14:46:07.210Z,34.91
2022-08-03T14:50:38.230Z,35.03
2022-08-03T14:52:32.627Z,34.92
2022-08-03T14:55:38.849Z,34.83
2022-08-03T14:58:52.891Z,34.86
2022-08-03T15:02:06.018Z,34.99
2022-08-03T15:05:12.759Z,34.87
2022-08-03T15:08:15.930Z,34.88
2022-08-03T15:11:18.439Z,34.89
2022-08-03T15:14:22.182Z,34.78
2022-08-03T15:17:30.886Z,34.76
2022-08-03T15:20:44.878Z,34.47
2022-08-03T15:23:48.317Z,34.26
2022-08-03T15:26:52.415Z,34.29
2022-08-03T15:30:05.962Z,34.26
2022-08-03T15:33:13.090Z,33.99
2022-08-03T15:36:16.328Z,34.24
2022-08-03T15:39:19.297Z,33.97
2022-08-03T15:42:21.968Z,33.65
2022-08-03T15:45:28.565Z,33.61
2022-08-03T15:48:39.713Z,33.36
2022-08-03T15:51:42.693Z,33.24
2022-08-03T15:54:45.253Z,32.91
2022-08-03T15:59:03.614Z,32.44
2022-08-03T16:01:15.281Z,32.71
2022-08-03T16:04:20.644Z,32.75
2022-08-03T16:08:03.410Z,32.87
2022-08-03T16:11:06.797Z,33.05
2022-08-03T16:14:30.895Z,33.06
2022-08-03T16:17:33.015Z,33.12
2022-08-03T16:20:36.451Z,33.11
2022-08-03T16:23:39.823Z,33.18
2022-08-03T16:26:46.184Z,33.19
2022-08-03T16:29:49.293Z,33.16
2022-08-03T16:32:51.880Z,33.11
2022-08-03T16:35:55.052Z,33.05
2022-08-03T16:38:57.843Z,32.98
2022-08-03T16:42:01.875Z,32.93
2022-08-03T16:45:06.509Z,32.80
2022-08-03T16:48:10.319Z,32.79
2022-08-03T16:51:13.114Z,32.72
2022-08-03T16:54:16.041Z,32.65
2022-08-03T16:57:56.220Z,32.55
2022-08-03T17:00:51.001Z,32.63
2022-08-03T17:04:04.861Z,32.56
2022-08-03T17:07:21.592Z,32.34
2022-08-03T17:10:31.450Z,32.12
2022-08-03T17:13:39.779Z,32.30
2022-08-03T17:16:52.939Z,32.20
2022-08-03T17:19:58.520Z,32.08
2022-08-03T17:23:19.200Z,31.98
2022-08-03T17:26:39.865Z,31.95
2022-08-03T17:29:52.987Z,31.95
2022-08-03T17:32:57.509Z,31.81
2022-08-03T17:36:00.657Z,31.65
2022-08-03T17:39:05.365Z,31.50
2022-08-03T17:42:31.026Z,31.48
2022-08-03T17:45:42.176Z,31.34
2022-08-03T17:48:56.967Z,31.07
2022-08-03T17:52:03.587Z,31.07
2022-08-03T17:55:57.092Z,30.97
2022-08-03T17:58:54.970Z,30.89
2022-08-03T18:02:51.488Z,30.80
2022-08-03T18:06:11.371Z,30.59
2022-08-03T18:10:04.424Z,30.42
2022-08-03T18:12:53.559Z,30.31
2022-08-03T18:16:04.528Z,30.08
2022-08-03T18:19:13.437Z,30.04
2022-08-03T18:22:20.706Z,29.90
2022-08-03T18:25:25.583Z,29.84
2022-08-03T18:28:52.009Z,29.67
2022-08-03T18:32:03.545Z,29.46
2022-08-03T18:35:07.649Z,29.34
2022-08-03T18:38:18.936Z,29.15
2022-08-03T18:41:32.232Z,28.98
2022-08-03T18:44:53.027Z,28.87
2022-08-03T18:47:57.988Z,28.70
2022-08-03T18:51:28.808Z,28.52
2022-08-03T18:55:12.545Z,28.39
2022-08-03T18:58:35.398Z,28.21
2022-08-03T19:02:00.707Z,28.12
2022-08-03T19:05:09.946Z,28.00
2022-08-03T19:08:20.636Z,27.92
2022-08-03T19:12:26.140Z,27.81
2022-08-03T19:15:12.808Z,27.68
2022-08-03T19:18:21.619Z,27.56
2022-08-03T19:21:24.554Z,27.40
2022-08-03T19:24:29.350Z,27.34
2022-08-03T19:27:33.091Z,27.23
2022-08-03T19:30:39.789Z,27.11
2022-08-03T19:33:57.603Z,27.06
2022-08-03T19:37:01.127Z,26.91
2022-08-03T19:40:05.627Z,26.82
2022-08-03T19:43:21.948Z,26.77
2022-08-03T19:46:30.997Z,26.66
2022-08-03T19:50:05.116Z,26.69
2022-08-03T19:53:04.145Z,26.52
2022-08-03T19:56:07.092Z,26.40
2022-08-03T19:59:13.228Z,26.36
2022-08-03T20:02:17.543Z,26.21
2022-08-03T20:05:30.379Z,26.19
2022-08-03T20:08:51.461Z,26.02
2022-08-03T20:11:55.459Z,25.91
2022-08-03T20:14:58.451Z,25.71
2022-08-03T20:18:01.318Z,25.70
2022-08-03T20:21:14.925Z,25.60
2022-08-03T20:24:26.992Z,25.60
2022-08-03T20:27:34.783Z,25.42
2022-08-03T20:30:58.118Z,25.29
2022-08-03T20:34:02.614Z,25.42
2022-08-03T20:37:05.477Z,25.33
2022-08-03T20:40:12.423Z,25.28
2022-08-03T20:43:16.401Z,25.23
2022-08-03T20:46:31.329Z,25.22
2022-08-03T20:49:45.924Z,25.16
2022-08-03T20:52:49.913Z,25.13
2022-08-03T20:56:02.114Z,25.05
2022-08-03T20:59:07.080Z,24.98
2022-08-03T21:02:29.483Z,24.94
2022-08-03T21:05:48.339Z,24.90
2022-08-03T21:09:00.145Z,24.87
2022-08-03T21:12:08.279Z,24.74
2022-08-03T21:16:01.091Z,24.72
2022-08-03T21:18:38.025Z,24.69
2022-08-03T21:21:42.939Z,24.55
2022-08-03T21:24:47.885Z,24.47
2022-08-03T21:27:52.788Z,24.36
2022-08-03T21:30:57.447Z,24.29
2022-08-03T21:34:03.317Z,24.24
2022-08-03T21:37:05.889Z,24.12
2022-08-03T21:40:12.202Z,23.99
2022-08-03T21:43:14.945Z,23.97
2022-08-03T21:46:19.829Z,23.86
2022-08-03T21:50:04.515Z,23.84
2022-08-03T21:52:48.477Z,23.79
2022-08-03T21:55:58.648Z,23.71
2022-08-03T21:59:06.159Z,23.68
2022-08-03T22:02:16.448Z,23.56
2022-08-03T22:05:29.066Z,23.54
2022-08-03T22:08:47.520Z,23.43
2022-08-03T22:11:54.133Z,23.41
2022-08-03T22:15:01.172Z,23.13
2022-08-03T22:18:05.309Z,23.16
2022-08-03T22:21:10.232Z,23.16
2022-08-03T22:24:13.584Z,23.00
2022-08-03T22:27:33.352Z,23.01
2022-08-03T22:30:37.444Z,22.91
2022-08-03T22:33:40.434Z,22.90
2022-08-03T22:36:43.321Z,22.86
2022-08-03T22:39:46.051Z,22.85
2022-08-03T22:42:50.643Z,22.79
2022-08-03T22:46:07.648Z,22.71
2022-08-03T22:49:15.498Z,22.70
2022-08-03T22:52:18.209Z,22.69
2022-08-03T22:55:25.070Z,22.48
2022-08-03T22:58:27.855Z,22.44
2022-08-03T23:01:33.197Z,22.50
2022-08-03T23:04:38.884Z,22.42
2022-08-03T23:07:42.894Z,22.39
2022-08-03T23:10:47.307Z,22.28
2022-08-03T23:13:54.133Z,22.25
2022-08-03T23:17:01.037Z,22.23
2022-08-03T23:20:07.276Z,22.17
2022-08-03T23:23:11.303Z,22.07
2022-08-03T23:26:17.361Z,22.01
2022-08-03T23:29:20.512Z,22.00
2022-08-03T23:32:25.721Z,21.97
2022-08-03T23:36:18.857Z,21.87
2022-08-03T23:39:11.372Z,21.93
2022-08-03T23:42:18.822Z,21.88
2022-08-03T23:45:22.234Z,21.88
2022-08-03T23:48:26.042Z,21.91
2022-08-03T23:51:41.203Z,21.91
2022-08-03T23:55:08.528Z,22.03
2022-08-03T23:58:26.626Z,22.02
